sensor_id;sensor_type;location;lat;lon;timestamp;temperature;humidity
52565;DHT22;38460;53.106;7.004;2024-03-23T00:55:14;6.10;99.90
52565;DHT22;38460;53.106;7.004;2024-03-23T00:57:40;6.10;99.90
52565;DHT22;38460;53.106;7.004;2024-03-23T01:00:06;6.10;99.90
52565;DHT22;38460;53.106;7.004;2024-03-23T01:02:32;6.00;99.90
52565;DHT22;38460;53.106;7.004;2024-03-23T01:04:58;6.00;99.90
52565;DHT22;38460;53.106;7.004;2024-03-23T01:07:24;6.00;99.90
52565;DHT22;38460;53.106;7.004;2024-03-23T01:09:49;6.00;99.90
52565;DHT22;38460;53.106;7.004;2024-03-23T01:12:15;5.90;99.90
52565;DHT22;38460;53.106;7.004;2024-03-23T01:14:41;6.00;99.90
52565;DHT22;38460;53.106;7.004;2024-03-23T01:17:07;5.90;99.90
52565;DHT22;38460;53.106;7.004;2024-03-23T01:19:32;5.90;99.90
52565;DHT22;38460;53.106;7.004;2024-03-23T01:21:59;5.90;99.90
52565;DHT22;38460;53.106;7.004;2024-03-23T01:24:24;5.90;99.90
52565;DHT22;38460;53.106;7.004;2024-03-23T01:26:50;5.80;99.90
52565;DHT22;38460;53.106;7.004;2024-03-23T01:29:16;5.80;99.90
52565;DHT22;38460;53.106;7.004;2024-03-23T01:31:41;5.80;99.90
52565;DHT22;38460;53.106;7.004;2024-03-23T01:34:07;5.80;99.90
52565;DHT22;38460;53.106;7.004;2024-03-23T01:36:33;5.70;99.90
52565;DHT22;38460;53.106;7.004;2024-03-23T01:38:59;5.70;99.90
52565;DHT22;38460;53.106;7.004;2024-03-23T01:41:25;5.60;99.90
52565;DHT22;38460;53.106;7.004;2024-03-23T01:43:50;5.60;99.90
52565;DHT22;38460;53.106;7.004;2024-03-23T01:46:17;5.60;99.90
52565;DHT22;38460;53.106;7.004;2024-03-23T01:48:43;5.60;99.90
52565;DHT22;38460;53.106;7.004;2024-03-23T01:51:09;5.50;99.90
52565;DHT22;38460;53.106;7.004;2024-03-23T01:53:35;5.40;99.90
52565;DHT22;38460;53.106;7.004;2024-03-23T01:56:02;5.50;99.90
52565;DHT22;38460;53.106;7.004;2024-03-23T01:58:28;5.50;99.90
52565;DHT22;38460;53.106;7.004;2024-03-23T02:00:54;5.40;99.90
52565;DHT22;38460;53.106;7.004;2024-03-23T02:05:50;5.30;99.90
52565;DHT22;38460;53.106;7.004;2024-03-23T02:08:18;5.30;99.90
52565;DHT22;38460;53.106;7.004;2024-03-23T02:10:45;5.30;99.90
52565;DHT22;38460;53.106;7.004;2024-03-23T02:13:11;5.20;99.90
52565;DHT22;38460;53.106;7.004;2024-03-23T02:15:38;5.20;99.90
52565;DHT22;38460;53.106;7.004;2024-03-23T02:18:04;5.20;99.90
52565;DHT22;38460;53.106;7.004;2024-03-23T02:20:30;5.20;99.90
52565;DHT22;38460;53.106;7.004;2024-03-23T02:22:56;5.10;99.90
52565;DHT22;38460;53.106;7.004;2024-03-23T02:25:21;5.10;99.90
52565;DHT22;38460;53.106;7.004;2024-03-23T02:27:47;5.10;99.90
52565;DHT22;38460;53.106;7.004;2024-03-23T02:30:13;5.00;99.90
52565;DHT22;38460;53.106;7.004;2024-03-23T02:32:38;5.00;99.90
52565;DHT22;38460;53.106;7.004;2024-03-23T02:35:05;5.00;99.90
52565;DHT22;38460;53.106;7.004;2024-03-23T02:37:30;5.00;99.90
52565;DHT22;38460;53.106;7.004;2024-03-23T02:39:56;4.90;99.90
52565;DHT22;38460;53.106;7.004;2024-03-23T02:42:22;5.00;99.90
52565;DHT22;38460;53.106;7.004;2024-03-23T02:44:47;4.90;99.90
52565;DHT22;38460;53.106;7.004;2024-03-23T02:47:13;4.80;99.90
52565;DHT22;38460;53.106;7.004;2024-03-23T02:49:39;4.90;99.90
52565;DHT22;38460;53.106;7.004;2024-03-23T02:52:05;4.80;99.90
52565;DHT22;38460;53.106;7.004;2024-03-23T02:54:30;4.80;99.90
52565;DHT22;38460;53.106;7.004;2024-03-23T02:56:56;4.80;99.90
52565;DHT22;38460;53.106;7.004;2024-03-23T02:59:22;4.70;99.90
52565;DHT22;38460;53.106;7.004;2024-03-23T03:01:47;4.70;99.90
52565;DHT22;38460;53.106;7.004;2024-03-23T03:04:13;4.70;99.90
52565;DHT22;38460;53.106;7.004;2024-03-23T03:06:39;4.60;99.90
52565;DHT22;38460;53.106;7.004;2024-03-23T03:09:06;4.60;99.90
52565;DHT22;38460;53.106;7.004;2024-03-23T03:11:32;4.60;99.90
52565;DHT22;38460;53.106;7.004;2024-03-23T03:13:57;4.60;99.90
52565;DHT22;38460;53.106;7.004;2024-03-23T03:16:26;4.60;99.90
52565;DHT22;38460;53.106;7.004;2024-03-23T03:18:52;4.50;99.90
52565;DHT22;38460;53.106;7.004;2024-03-23T03:21:18;4.50;99.90
52565;DHT22;38460;53.106;7.004;2024-03-23T03:23:44;4.50;99.90
52565;DHT22;38460;53.106;7.004;2024-03-23T03:26:10;4.50;99.90
52565;DHT22;38460;53.106;7.004;2024-03-23T03:28:36;4.50;99.90
52565;DHT22;38460;53.106;7.004;2024-03-23T03:31:02;4.40;99.90
52565;DHT22;38460;53.106;7.004;2024-03-23T03:33:28;4.40;99.90
52565;DHT22;38460;53.106;7.004;2024-03-23T03:35:54;4.40;99.90
52565;DHT22;38460;53.106;7.004;2024-03-23T03:38:20;4.30;99.90
52565;DHT22;38460;53.106;7.004;2024-03-23T03:40:46;4.40;99.90
52565;DHT22;38460;53.106;7.004;2024-03-23T03:43:12;4.30;99.90
52565;DHT22;38460;53.106;7.004;2024-03-23T03:45:38;4.40;99.90
52565;DHT22;38460;53.106;7.004;2024-03-23T03:48:04;4.40;99.90
52565;DHT22;38460;53.106;7.004;2024-03-23T03:50:30;4.30;99.90
52565;DHT22;38460;53.106;7.004;2024-03-23T03:52:56;4.30;99.90
52565;DHT22;38460;53.106;7.004;2024-03-23T03:55:22;4.30;99.90
52565;DHT22;38460;53.106;7.004;2024-03-23T03:57:47;4.30;99.90
52565;DHT22;38460;53.106;7.004;2024-03-23T04:00:13;4.30;99.90
52565;DHT22;38460;53.106;7.004;2024-03-23T04:02:39;4.30;99.90
52565;DHT22;38460;53.106;7.004;2024-03-23T04:05:05;4.20;99.90
52565;DHT22;38460;53.106;7.004;2024-03-23T04:07:31;4.20;99.90
52565;DHT22;38460;53.106;7.004;2024-03-23T04:09:57;4.20;99.90
52565;DHT22;38460;53.106;7.004;2024-03-23T04:12:23;4.10;99.90
52565;DHT22;38460;53.106;7.004;2024-03-23T04:14:49;4.10;99.90
52565;DHT22;38460;53.106;7.004;2024-03-23T04:17:15;4.10;99.90
52565;DHT22;38460;53.106;7.004;2024-03-23T04:19:41;4.10;99.90
52565;DHT22;38460;53.106;7.004;2024-03-23T04:22:07;4.10;99.90
52565;DHT22;38460;53.106;7.004;2024-03-23T04:24:33;4.10;99.90
52565;DHT22;38460;53.106;7.004;2024-03-23T04:26:59;4.10;99.90
52565;DHT22;38460;53.106;7.004;2024-03-23T04:29:25;4.00;99.90
52565;DHT22;38460;53.106;7.004;2024-03-23T04:31:52;4.00;99.90
52565;DHT22;38460;53.106;7.004;2024-03-23T04:34:18;4.00;99.90
52565;DHT22;38460;53.106;7.004;2024-03-23T04:36:44;3.90;99.90
52565;DHT22;38460;53.106;7.004;2024-03-23T04:39:10;3.90;99.90
52565;DHT22;38460;53.106;7.004;2024-03-23T04:41:35;3.90;99.90
52565;DHT22;38460;53.106;7.004;2024-03-23T04:44:01;3.90;99.90
52565;DHT22;38460;53.106;7.004;2024-03-23T04:46:27;3.90;99.90
52565;DHT22;38460;53.106;7.004;2024-03-23T04:48:53;3.90;99.90
52565;DHT22;38460;53.106;7.004;2024-03-23T04:51:24;3.80;99.90
52565;DHT22;38460;53.106;7.004;2024-03-23T04:53:50;3.80;99.90
52565;DHT22;38460;53.106;7.004;2024-03-23T04:56:17;3.80;99.90
52565;DHT22;38460;53.106;7.004;2024-03-23T04:58:43;3.80;99.90
52565;DHT22;38460;53.106;7.004;2024-03-23T05:01:10;3.80;99.90
52565;DHT22;38460;53.106;7.004;2024-03-23T05:03:36;3.80;99.90
52565;DHT22;38460;53.106;7.004;2024-03-23T05:06:01;3.70;99.90
52565;DHT22;38460;53.106;7.004;2024-03-23T05:08:27;3.70;99.90
52565;DHT22;38460;53.106;7.004;2024-03-23T05:10:53;3.70;99.90
52565;DHT22;38460;53.106;7.004;2024-03-23T05:13:19;3.70;99.90
52565;DHT22;38460;53.106;7.004;2024-03-23T05:15:50;3.70;99.90
52565;DHT22;38460;53.106;7.004;2024-03-23T05:18:16;3.70;99.90
52565;DHT22;38460;53.106;7.004;2024-03-23T05:20:41;3.60;99.90
52565;DHT22;38460;53.106;7.004;2024-03-23T05:23:07;3.60;99.90
52565;DHT22;38460;53.106;7.004;2024-03-23T05:25:33;3.60;99.90
52565;DHT22;38460;53.106;7.004;2024-03-23T05:27:59;3.60;99.90
52565;DHT22;38460;53.106;7.004;2024-03-23T05:30:25;3.60;99.90
52565;DHT22;38460;53.106;7.004;2024-03-23T05:32:50;3.60;99.90
52565;DHT22;38460;53.106;7.004;2024-03-23T05:35:16;3.60;99.90
52565;DHT22;38460;53.106;7.004;2024-03-23T05:37:42;3.60;99.90
52565;DHT22;38460;53.106;7.004;2024-03-23T05:40:08;3.60;99.90
52565;DHT22;38460;53.106;7.004;2024-03-23T05:42:35;3.60;99.90
52565;DHT22;38460;53.106;7.004;2024-03-23T05:45:00;3.60;99.90
52565;DHT22;38460;53.106;7.004;2024-03-23T05:47:26;3.60;99.90
52565;DHT22;38460;53.106;7.004;2024-03-23T05:49:52;3.60;99.90
52565;DHT22;38460;53.106;7.004;2024-03-23T05:52:18;3.60;99.90
52565;DHT22;38460;53.106;7.004;2024-03-23T05:54:43;3.60;99.90
52565;DHT22;38460;53.106;7.004;2024-03-23T05:57:09;3.70;99.90
52565;DHT22;38460;53.106;7.004;2024-03-23T05:59:35;3.70;99.90
52565;DHT22;38460;53.106;7.004;2024-03-23T06:02:01;3.70;99.90
52565;DHT22;38460;53.106;7.004;2024-03-23T06:04:26;3.70;99.90
52565;DHT22;38460;53.106;7.004;2024-03-23T06:06:52;3.70;99.90
52565;DHT22;38460;53.106;7.004;2024-03-23T06:09:18;3.80;99.90
52565;DHT22;38460;53.106;7.004;2024-03-23T06:11:45;3.80;99.90
52565;DHT22;38460;53.106;7.004;2024-03-23T06:14:11;3.90;99.90
52565;DHT22;38460;53.106;7.004;2024-03-23T06:16:36;3.80;99.90
52565;DHT22;38460;53.106;7.004;2024-03-23T06:19:02;3.90;99.90
52565;DHT22;38460;53.106;7.004;2024-03-23T06:21:30;3.90;99.90
52565;DHT22;38460;53.106;7.004;2024-03-23T06:23:55;3.90;99.90
52565;DHT22;38460;53.106;7.004;2024-03-23T06:26:21;4.00;99.90
52565;DHT22;38460;53.106;7.004;2024-03-23T06:28:47;4.00;99.90
52565;DHT22;38460;53.106;7.004;2024-03-23T06:31:13;4.10;99.90
52565;DHT22;38460;53.106;7.004;2024-03-23T06:33:39;4.10;99.90
52565;DHT22;38460;53.106;7.004;2024-03-23T06:36:10;4.20;99.90
52565;DHT22;38460;53.106;7.004;2024-03-23T06:38:36;4.20;99.90
52565;DHT22;38460;53.106;7.004;2024-03-23T06:41:03;4.30;99.90
52565;DHT22;38460;53.106;7.004;2024-03-23T06:43:29;4.40;99.90
52565;DHT22;38460;53.106;7.004;2024-03-23T06:45:55;4.50;99.90
52565;DHT22;38460;53.106;7.004;2024-03-23T06:48:21;5.70;99.90
52565;DHT22;38460;53.106;7.004;2024-03-23T06:50:47;4.70;99.90
52565;DHT22;38460;53.106;7.004;2024-03-23T06:53:14;4.80;99.90
52565;DHT22;38460;53.106;7.004;2024-03-23T06:55:40;4.80;99.90
52565;DHT22;38460;53.106;7.004;2024-03-23T06:58:06;4.80;99.90
52565;DHT22;38460;53.106;7.004;2024-03-23T07:00:32;4.80;99.90
52565;DHT22;38460;53.106;7.004;2024-03-23T07:02:59;4.80;99.90
52565;DHT22;38460;53.106;7.004;2024-03-23T07:05:25;4.80;99.90
52565;DHT22;38460;53.106;7.004;2024-03-23T07:07:50;4.80;99.90
52565;DHT22;38460;53.106;7.004;2024-03-23T07:10:16;4.90;99.90
52565;DHT22;38460;53.106;7.004;2024-03-23T07:12:43;4.90;99.90
52565;DHT22;38460;53.106;7.004;2024-03-23T07:15:09;5.00;99.90
52565;DHT22;38460;53.106;7.004;2024-03-23T07:17:35;5.10;99.90
52565;DHT22;38460;53.106;7.004;2024-03-23T07:20:01;5.20;99.90
52565;DHT22;38460;53.106;7.004;2024-03-23T07:22:30;5.20;99.90
52565;DHT22;38460;53.106;7.004;2024-03-23T07:24:59;5.20;99.90
52565;DHT22;38460;53.106;7.004;2024-03-23T07:27:25;5.20;99.90
52565;DHT22;38460;53.106;7.004;2024-03-23T07:29:51;5.10;99.90
52565;DHT22;38460;53.106;7.004;2024-03-23T07:32:17;5.10;99.90
52565;DHT22;38460;53.106;7.004;2024-03-23T07:34:43;5.10;99.90
52565;DHT22;38460;53.106;7.004;2024-03-23T07:37:10;5.10;99.90
52565;DHT22;38460;53.106;7.004;2024-03-23T07:39:36;5.20;99.90
52565;DHT22;38460;53.106;7.004;2024-03-23T07:42:02;5.20;99.90
52565;DHT22;38460;53.106;7.004;2024-03-23T07:44:28;5.30;99.90
52565;DHT22;38460;53.106;7.004;2024-03-23T07:46:53;5.40;99.90
52565;DHT22;38460;53.106;7.004;2024-03-23T07:49:19;5.40;99.90
52565;DHT22;38460;53.106;7.004;2024-03-23T07:51:45;5.50;99.90
52565;DHT22;38460;53.106;7.004;2024-03-23T07:54:11;5.60;99.90
52565;DHT22;38460;53.106;7.004;2024-03-23T07:56:37;5.60;99.90
52565;DHT22;38460;53.106;7.004;2024-03-23T07:59:02;5.70;99.90
52565;DHT22;38460;53.106;7.004;2024-03-23T08:01:31;5.70;99.90
52565;DHT22;38460;53.106;7.004;2024-03-23T08:03:57;5.80;99.90
52565;DHT22;38460;53.106;7.004;2024-03-23T08:06:22;5.90;99.90
52565;DHT22;38460;53.106;7.004;2024-03-23T08:08:52;5.90;99.90
52565;DHT22;38460;53.106;7.004;2024-03-23T08:11:28;6.00;99.90
52565;DHT22;38460;53.106;7.004;2024-03-23T08:13:55;6.00;99.90
52565;DHT22;38460;53.106;7.004;2024-03-23T08:16:21;6.00;99.90
52565;DHT22;38460;53.106;7.004;2024-03-23T08:18:47;6.10;99.90
52565;DHT22;38460;53.106;7.004;2024-03-23T08:21:13;6.20;99.90
52565;DHT22;38460;53.106;7.004;2024-03-23T08:23:39;6.30;99.90
52565;DHT22;38460;53.106;7.004;2024-03-23T08:26:09;6.40;99.90
52565;DHT22;38460;53.106;7.004;2024-03-23T08:28:36;6.40;99.90
52565;DHT22;38460;53.106;7.004;2024-03-23T08:31:06;6.40;99.90
52565;DHT22;38460;53.106;7.004;2024-03-23T08:33:32;6.50;99.90
52565;DHT22;38460;53.106;7.004;2024-03-23T08:36:03;6.50;99.90
52565;DHT22;38460;53.106;7.004;2024-03-23T08:38:29;6.50;99.90
52565;DHT22;38460;53.106;7.004;2024-03-23T08:41:10;6.60;99.90
52565;DHT22;38460;53.106;7.004;2024-03-23T08:43:38;6.70;99.90
52565;DHT22;38460;53.106;7.004;2024-03-23T08:48:41;6.80;99.90
52565;DHT22;38460;53.106;7.004;2024-03-23T08:51:09;6.90;99.90
52565;DHT22;38460;53.106;7.004;2024-03-23T08:53:36;7.10;99.90
52565;DHT22;38460;53.106;7.004;2024-03-23T08:56:02;7.10;99.90
52565;DHT22;38460;53.106;7.004;2024-03-23T08:58:29;7.20;99.90
52565;DHT22;38460;53.106;7.004;2024-03-23T09:00:57;7.20;99.90
52565;DHT22;38460;53.106;7.004;2024-03-23T09:03:26;7.20;99.90
52565;DHT22;38460;53.106;7.004;2024-03-23T09:05:52;7.10;99.90
52565;DHT22;38460;53.106;7.004;2024-03-23T09:08:18;7.00;99.90
52565;DHT22;38460;53.106;7.004;2024-03-23T09:10:44;7.10;99.90
52565;DHT22;38460;53.106;7.004;2024-03-23T09:13:10;7.10;99.90
52565;DHT22;38460;53.106;7.004;2024-03-23T09:15:37;7.20;99.90
52565;DHT22;38460;53.106;7.004;2024-03-23T09:18:04;7.30;99.90
52565;DHT22;38460;53.106;7.004;2024-03-23T09:20:33;7.30;99.90
52565;DHT22;38460;53.106;7.004;2024-03-23T09:22:59;7.40;99.90
52565;DHT22;38460;53.106;7.004;2024-03-23T09:25:25;7.50;99.90
52565;DHT22;38460;53.106;7.004;2024-03-23T09:27:51;7.60;99.90
52565;DHT22;38460;53.106;7.004;2024-03-23T09:30:17;7.70;99.90
52565;DHT22;38460;53.106;7.004;2024-03-23T09:32:46;7.80;99.90
52565;DHT22;38460;53.106;7.004;2024-03-23T09:35:12;7.80;99.90
52565;DHT22;38460;53.106;7.004;2024-03-23T09:37:41;7.90;99.90
52565;DHT22;38460;53.106;7.004;2024-03-23T09:40:10;8.00;99.90
52565;DHT22;38460;53.106;7.004;2024-03-23T09:42:37;8.10;99.90
52565;DHT22;38460;53.106;7.004;2024-03-23T09:45:06;8.20;99.90
52565;DHT22;38460;53.106;7.004;2024-03-23T09:47:33;8.30;99.90
52565;DHT22;38460;53.106;7.004;2024-03-23T09:50:00;8.40;99.90
52565;DHT22;38460;53.106;7.004;2024-03-23T09:52:26;8.60;99.90
52565;DHT22;38460;53.106;7.004;2024-03-23T09:54:52;8.80;99.90
52565;DHT22;38460;53.106;7.004;2024-03-23T09:57:17;8.90;99.90
52565;DHT22;38460;53.106;7.004;2024-03-23T09:59:43;8.90;99.90
52565;DHT22;38460;53.106;7.004;2024-03-23T10:02:09;8.80;99.90
52565;DHT22;38460;53.106;7.004;2024-03-23T10:04:42;8.70;99.90
52565;DHT22;38460;53.106;7.004;2024-03-23T10:07:14;8.60;99.90
52565;DHT22;38460;53.106;7.004;2024-03-23T10:09:40;8.50;99.90
52565;DHT22;38460;53.106;7.004;2024-03-23T10:12:14;8.40;99.90
52565;DHT22;38460;53.106;7.004;2024-03-23T10:14:40;8.30;99.90
52565;DHT22;38460;53.106;7.004;2024-03-23T10:17:17;8.30;99.90
52565;DHT22;38460;53.106;7.004;2024-03-23T10:19:47;8.30;99.90
52565;DHT22;38460;53.106;7.004;2024-03-23T10:24:44;8.30;99.90
52565;DHT22;38460;53.106;7.004;2024-03-23T10:27:19;8.20;99.90
52565;DHT22;38460;53.106;7.004;2024-03-23T10:29:48;8.00;99.90
52565;DHT22;38460;53.106;7.004;2024-03-23T10:32:15;7.70;99.90
52565;DHT22;38460;53.106;7.004;2024-03-23T10:34:41;7.50;99.90
52565;DHT22;38460;53.106;7.004;2024-03-23T10:37:08;7.40;99.90
52565;DHT22;38460;53.106;7.004;2024-03-23T10:39:38;7.30;99.90
52565;DHT22;38460;53.106;7.004;2024-03-23T10:42:08;7.20;99.90
52565;DHT22;38460;53.106;7.004;2024-03-23T10:44:35;7.10;99.90
52565;DHT22;38460;53.106;7.004;2024-03-23T10:47:02;7.10;99.90
52565;DHT22;38460;53.106;7.004;2024-03-23T10:49:32;7.10;99.90
52565;DHT22;38460;53.106;7.004;2024-03-23T10:52:00;7.10;99.90
52565;DHT22;38460;53.106;7.004;2024-03-23T10:54:26;7.10;99.90
52565;DHT22;38460;53.106;7.004;2024-03-23T10:57:05;7.20;99.90
52565;DHT22;38460;53.106;7.004;2024-03-23T10:59:33;7.40;99.90
52565;DHT22;38460;53.106;7.004;2024-03-23T11:02:01;7.70;99.90
52565;DHT22;38460;53.106;7.004;2024-03-23T11:04:47;8.00;99.90
52565;DHT22;38460;53.106;7.004;2024-03-23T11:07:28;8.20;99.90
52565;DHT22;38460;53.106;7.004;2024-03-23T11:09:54;8.50;99.90
52565;DHT22;38460;53.106;7.004;2024-03-23T11:14:51;8.80;99.90
52565;DHT22;38460;53.106;7.004;2024-03-23T11:17:24;8.90;99.90
52565;DHT22;38460;53.106;7.004;2024-03-23T11:19:57;9.10;99.90
52565;DHT22;38460;53.106;7.004;2024-03-23T11:22:41;9.20;99.90
52565;DHT22;38460;53.106;7.004;2024-03-23T11:25:19;9.30;99.90
52565;DHT22;38460;53.106;7.004;2024-03-23T11:27:47;9.30;99.90
52565;DHT22;38460;53.106;7.004;2024-03-23T11:30:18;9.20;99.90
52565;DHT22;38460;53.106;7.004;2024-03-23T11:32:45;9.20;99.90
52565;DHT22;38460;53.106;7.004;2024-03-23T11:35:24;9.30;99.90
52565;DHT22;38460;53.106;7.004;2024-03-23T11:38:34;9.10;99.90
52565;DHT22;38460;53.106;7.004;2024-03-23T11:40:53;8.90;99.90
52565;DHT22;38460;53.106;7.004;2024-03-23T11:43:20;8.80;99.90
52565;DHT22;38460;53.106;7.004;2024-03-23T11:45:48;8.80;99.90
52565;DHT22;38460;53.106;7.004;2024-03-23T11:48:19;8.80;99.90
52565;DHT22;38460;53.106;7.004;2024-03-23T11:50:46;8.90;99.90
52565;DHT22;38460;53.106;7.004;2024-03-23T11:53:21;9.00;99.90
52565;DHT22;38460;53.106;7.004;2024-03-23T11:55:52;9.10;99.90
52565;DHT22;38460;53.106;7.004;2024-03-23T11:58:20;9.30;99.90
52565;DHT22;38460;53.106;7.004;2024-03-23T12:00:57;9.50;99.90
52565;DHT22;38460;53.106;7.004;2024-03-23T12:03:23;9.60;99.90
52565;DHT22;38460;53.106;7.004;2024-03-23T12:06:03;9.70;99.90
52565;DHT22;38460;53.106;7.004;2024-03-23T12:08:33;9.80;99.90
52565;DHT22;38460;53.106;7.004;2024-03-23T12:11:13;9.90;99.90
52565;DHT22;38460;53.106;7.004;2024-03-23T12:13:41;9.80;99.90
52565;DHT22;38460;53.106;7.004;2024-03-23T12:16:10;9.80;99.90
52565;DHT22;38460;53.106;7.004;2024-03-23T12:18:47;9.70;99.90
52565;DHT22;38460;53.106;7.004;2024-03-23T12:21:13;9.70;99.90
52565;DHT22;38460;53.106;7.004;2024-03-23T12:23:39;9.90;99.90
52565;DHT22;38460;53.106;7.004;2024-03-23T12:26:06;10.00;99.90
52565;DHT22;38460;53.106;7.004;2024-03-23T12:28:32;10.10;99.90
52565;DHT22;38460;53.106;7.004;2024-03-23T12:30:58;10.30;99.90
52565;DHT22;38460;53.106;7.004;2024-03-23T12:33:24;10.10;99.90
52565;DHT22;38460;53.106;7.004;2024-03-23T12:35:51;9.90;99.90
52565;DHT22;38460;53.106;7.004;2024-03-23T12:38:17;9.50;99.90
52565;DHT22;38460;53.106;7.004;2024-03-23T12:40:46;9.30;99.90
52565;DHT22;38460;53.106;7.004;2024-03-23T12:43:13;9.10;99.90
52565;DHT22;38460;53.106;7.004;2024-03-23T12:45:39;9.00;99.90
52565;DHT22;38460;53.106;7.004;2024-03-23T12:48:05;8.80;99.90
52565;DHT22;38460;53.106;7.004;2024-03-23T12:50:31;8.70;99.90
52565;DHT22;38460;53.106;7.004;2024-03-23T12:52:58;8.70;99.90
52565;DHT22;38460;53.106;7.004;2024-03-23T12:55:23;8.70;99.90
52565;DHT22;38460;53.106;7.004;2024-03-23T12:57:49;8.70;99.90
52565;DHT22;38460;53.106;7.004;2024-03-23T13:00:15;8.70;99.90
52565;DHT22;38460;53.106;7.004;2024-03-23T13:02:42;8.70;99.90
52565;DHT22;38460;53.106;7.004;2024-03-23T13:05:08;8.70;99.90
52565;DHT22;38460;53.106;7.004;2024-03-23T13:07:34;8.70;99.90
52565;DHT22;38460;53.106;7.004;2024-03-23T13:10:01;8.80;99.90
52565;DHT22;38460;53.106;7.004;2024-03-23T13:12:27;8.90;99.90
52565;DHT22;38460;53.106;7.004;2024-03-23T13:14:53;9.00;99.90
52565;DHT22;38460;53.106;7.004;2024-03-23T13:17:19;9.20;99.90
52565;DHT22;38460;53.106;7.004;2024-03-23T13:19:44;9.10;99.90
52565;DHT22;38460;53.106;7.004;2024-03-23T13:22:10;9.10;99.90
52565;DHT22;38460;53.106;7.004;2024-03-23T13:24:37;9.10;99.90
52565;DHT22;38460;53.106;7.004;2024-03-23T13:27:03;9.10;99.90
52565;DHT22;38460;53.106;7.004;2024-03-23T13:29:31;9.00;99.90
52565;DHT22;38460;53.106;7.004;2024-03-23T13:31:56;9.10;99.90
52565;DHT22;38460;53.106;7.004;2024-03-23T13:34:22;9.20;99.90
52565;DHT22;38460;53.106;7.004;2024-03-23T13:36:48;9.10;99.90
52565;DHT22;38460;53.106;7.004;2024-03-23T13:39:14;9.10;99.90
52565;DHT22;38460;53.106;7.004;2024-03-23T13:41:42;8.90;99.90
52565;DHT22;38460;53.106;7.004;2024-03-23T13:44:09;8.90;99.90
52565;DHT22;38460;53.106;7.004;2024-03-23T13:46:39;9.00;99.90
52565;DHT22;38460;53.106;7.004;2024-03-23T13:49:09;9.00;99.90
52565;DHT22;38460;53.106;7.004;2024-03-23T13:51:39;9.10;99.90
52565;DHT22;38460;53.106;7.004;2024-03-23T13:54:05;9.20;99.90
52565;DHT22;38460;53.106;7.004;2024-03-23T13:56:30;9.20;99.90
52565;DHT22;38460;53.106;7.004;2024-03-23T13:58:56;9.30;99.90
52565;DHT22;38460;53.106;7.004;2024-03-23T14:01:23;9.40;99.90
52565;DHT22;38460;53.106;7.004;2024-03-23T14:03:50;9.40;99.90
52565;DHT22;38460;53.106;7.004;2024-03-23T14:06:15;9.40;99.90
52565;DHT22;38460;53.106;7.004;2024-03-23T14:08:41;9.40;99.90
52565;DHT22;38460;53.106;7.004;2024-03-23T14:11:09;9.40;99.90
52565;DHT22;38460;53.106;7.004;2024-03-23T14:13:35;9.40;99.90
52565;DHT22;38460;53.106;7.004;2024-03-23T14:16:01;9.30;99.90
52565;DHT22;38460;53.106;7.004;2024-03-23T14:18:27;9.40;99.90
52565;DHT22;38460;53.106;7.004;2024-03-23T14:20:57;9.50;99.90
52565;DHT22;38460;53.106;7.004;2024-03-23T14:23:27;9.50;99.90
52565;DHT22;38460;53.106;7.004;2024-03-23T14:25:58;9.30;99.90
52565;DHT22;38460;53.106;7.004;2024-03-23T14:28:24;8.90;99.90
52565;DHT22;38460;53.106;7.004;2024-03-23T14:30:51;8.50;99.90
52565;DHT22;38460;53.106;7.004;2024-03-23T14:33:18;8.20;99.90
52565;DHT22;38460;53.106;7.004;2024-03-23T14:35:51;8.00;99.90
52565;DHT22;38460;53.106;7.004;2024-03-23T14:38:18;7.90;99.90
52565;DHT22;38460;53.106;7.004;2024-03-23T14:40:45;7.90;99.90
52565;DHT22;38460;53.106;7.004;2024-03-23T14:43:11;8.00;99.90
52565;DHT22;38460;53.106;7.004;2024-03-23T14:45:36;8.20;99.90
52565;DHT22;38460;53.106;7.004;2024-03-23T14:48:02;8.30;99.90
52565;DHT22;38460;53.106;7.004;2024-03-23T14:50:28;8.40;99.90
52565;DHT22;38460;53.106;7.004;2024-03-23T14:52:54;8.40;99.90
52565;DHT22;38460;53.106;7.004;2024-03-23T14:55:20;8.50;99.90
52565;DHT22;38460;53.106;7.004;2024-03-23T14:57:45;8.50;99.90
52565;DHT22;38460;53.106;7.004;2024-03-23T15:00:11;8.50;99.90
52565;DHT22;38460;53.106;7.004;2024-03-23T15:02:38;8.50;99.90
52565;DHT22;38460;53.106;7.004;2024-03-23T15:05:04;8.50;99.90
52565;DHT22;38460;53.106;7.004;2024-03-23T15:07:32;8.50;99.90
52565;DHT22;38460;53.106;7.004;2024-03-23T15:09:58;8.50;99.90
52565;DHT22;38460;53.106;7.004;2024-03-23T15:12:24;8.50;99.90
52565;DHT22;38460;53.106;7.004;2024-03-23T15:14:49;8.40;99.90
52565;DHT22;38460;53.106;7.004;2024-03-23T15:17:15;8.40;99.90
52565;DHT22;38460;53.106;7.004;2024-03-23T15:19:41;8.40;99.90
52565;DHT22;38460;53.106;7.004;2024-03-23T15:22:08;8.50;99.90
52565;DHT22;38460;53.106;7.004;2024-03-23T15:24:35;9.60;99.90
52565;DHT22;38460;53.106;7.004;2024-03-23T15:27:02;8.50;99.90
52565;DHT22;38460;53.106;7.004;2024-03-23T15:29:28;8.50;99.90
52565;DHT22;38460;53.106;7.004;2024-03-23T15:31:54;8.50;99.90
52565;DHT22;38460;53.106;7.004;2024-03-23T15:34:20;8.40;99.90
52565;DHT22;38460;53.106;7.004;2024-03-23T15:36:49;8.30;99.90
52565;DHT22;38460;53.106;7.004;2024-03-23T15:39:16;8.20;99.90
52565;DHT22;38460;53.106;7.004;2024-03-23T15:41:46;8.10;99.90
52565;DHT22;38460;53.106;7.004;2024-03-23T15:44:12;7.90;99.90
52565;DHT22;38460;53.106;7.004;2024-03-23T15:46:38;7.90;99.90
52565;DHT22;38460;53.106;7.004;2024-03-23T15:49:03;7.80;99.90
52565;DHT22;38460;53.106;7.004;2024-03-23T15:51:30;7.80;99.90
52565;DHT22;38460;53.106;7.004;2024-03-23T15:54:02;7.80;99.90
52565;DHT22;38460;53.106;7.004;2024-03-23T15:56:31;7.80;99.90
52565;DHT22;38460;53.106;7.004;2024-03-23T15:58:57;7.70;99.90
52565;DHT22;38460;53.106;7.004;2024-03-23T16:01:32;7.80;99.90
52565;DHT22;38460;53.106;7.004;2024-03-23T16:04:00;7.70;99.90
52565;DHT22;38460;53.106;7.004;2024-03-23T16:06:26;7.70;99.90
52565;DHT22;38460;53.106;7.004;2024-03-23T16:08:52;7.60;99.90
52565;DHT22;38460;53.106;7.004;2024-03-23T16:11:18;7.60;99.90
52565;DHT22;38460;53.106;7.004;2024-03-23T16:13:44;7.60;99.90
52565;DHT22;38460;53.106;7.004;2024-03-23T16:16:09;7.70;99.90
52565;DHT22;38460;53.106;7.004;2024-03-23T16:18:36;7.60;99.90
52565;DHT22;38460;53.106;7.004;2024-03-23T16:21:04;7.60;99.90
52565;DHT22;38460;53.106;7.004;2024-03-23T16:23:37;7.60;99.90
52565;DHT22;38460;53.106;7.004;2024-03-23T16:26:03;7.50;99.90
52565;DHT22;38460;53.106;7.004;2024-03-23T16:28:33;7.50;99.90
52565;DHT22;38460;53.106;7.004;2024-03-23T16:31:01;7.50;99.90
52565;DHT22;38460;53.106;7.004;2024-03-23T16:33:27;7.40;99.90
52565;DHT22;38460;53.106;7.004;2024-03-23T16:36:09;7.40;99.90
52565;DHT22;38460;53.106;7.004;2024-03-23T16:38:36;7.40;99.90
52565;DHT22;38460;53.106;7.004;2024-03-23T16:41:12;7.30;99.90
52565;DHT22;38460;53.106;7.004;2024-03-23T16:43:44;7.30;99.90
52565;DHT22;38460;53.106;7.004;2024-03-23T16:46:12;7.30;99.90
52565;DHT22;38460;53.106;7.004;2024-03-23T16:48:40;7.30;99.90